sensor_id;sensor_type;location;lat;lon;timestamp;temperature;humidity
36292;DHT22;22327;51.208;6.418;2023-06-22T00:01:24;24.60;67.30
36292;DHT22;22327;51.208;6.418;2023-06-22T00:04:25;24.50;67.80
36292;DHT22;22327;51.208;6.418;2023-06-22T00:07:26;24.50;68.20
36292;DHT22;22327;51.208;6.418;2023-06-22T00:10:26;24.40;68.70
36292;DHT22;22327;51.208;6.418;2023-06-22T00:13:27;24.40;69.20
36292;DHT22;22327;51.208;6.418;2023-06-22T00:16:27;24.30;69.60
36292;DHT22;22327;51.208;6.418;2023-06-22T00:19:28;24.20;70.50
36292;DHT22;22327;51.208;6.418;2023-06-22T00:22:28;24.20;71.20
36292;DHT22;22327;51.208;6.418;2023-06-22T00:25:29;24.10;71.90
36292;DHT22;22327;51.208;6.418;2023-06-22T00:28:29;24.00;72.50
36292;DHT22;22327;51.208;6.418;2023-06-22T00:31:30;23.90;73.20
36292;DHT22;22327;51.208;6.418;2023-06-22T00:34:31;23.90;73.90
36292;DHT22;22327;51.208;6.418;2023-06-22T00:37:31;23.80;74.70
36292;DHT22;22327;51.208;6.418;2023-06-22T00:40:32;23.80;75.50
36292;DHT22;22327;51.208;6.418;2023-06-22T00:43:33;23.80;76.10
36292;DHT22;22327;51.208;6.418;2023-06-22T00:46:34;23.70;76.50
36292;DHT22;22327;51.208;6.418;2023-06-22T00:49:34;23.80;77.00
36292;DHT22;22327;51.208;6.418;2023-06-22T00:52:35;23.70;77.50
36292;DHT22;22327;51.208;6.418;2023-06-22T00:55:37;23.70;78.00
36292;DHT22;22327;51.208;6.418;2023-06-22T00:58:39;23.60;78.50
36292;DHT22;22327;51.208;6.418;2023-06-22T01:01:41;23.70;79.10
36292;DHT22;22327;51.208;6.418;2023-06-22T01:04:42;23.70;79.40
36292;DHT22;22327;51.208;6.418;2023-06-22T01:08:23;23.60;79.80
36292;DHT22;22327;51.208;6.418;2023-06-22T01:14:46;23.60;80.90
36292;DHT22;22327;51.208;6.418;2023-06-22T01:17:48;23.60;81.40
36292;DHT22;22327;51.208;6.418;2023-06-22T01:20:50;23.50;81.80
36292;DHT22;22327;51.208;6.418;2023-06-22T01:24:21;23.60;82.20
36292;DHT22;22327;51.208;6.418;2023-06-22T01:30:33;23.50;83.00
36292;DHT22;22327;51.208;6.418;2023-06-22T01:33:37;23.50;83.50
36292;DHT22;22327;51.208;6.418;2023-06-22T01:36:38;23.40;83.90
36292;DHT22;22327;51.208;6.418;2023-06-22T01:39:39;23.40;84.30
36292;DHT22;22327;51.208;6.418;2023-06-22T01:42:40;23.40;84.60
36292;DHT22;22327;51.208;6.418;2023-06-22T01:45:42;23.40;84.70
36292;DHT22;22327;51.208;6.418;2023-06-22T01:48:43;23.40;84.90
36292;DHT22;22327;51.208;6.418;2023-06-22T01:51:43;23.40;85.10
36292;DHT22;22327;51.208;6.418;2023-06-22T01:54:44;23.40;85.60
36292;DHT22;22327;51.208;6.418;2023-06-22T01:57:44;23.40;85.80
36292;DHT22;22327;51.208;6.418;2023-06-22T02:00:51;23.50;86.00
36292;DHT22;22327;51.208;6.418;2023-06-22T02:04:21;23.50;85.90
36292;DHT22;22327;51.208;6.418;2023-06-22T02:07:28;23.50;86.00
36292;DHT22;22327;51.208;6.418;2023-06-22T02:10:32;23.50;86.40
36292;DHT22;22327;51.208;6.418;2023-06-22T02:13:36;23.50;86.50
36292;DHT22;22327;51.208;6.418;2023-06-22T02:16:36;23.50;86.50
36292;DHT22;22327;51.208;6.418;2023-06-22T02:19:40;23.50;86.70
36292;DHT22;22327;51.208;6.418;2023-06-22T02:22:41;23.40;86.90
36292;DHT22;22327;51.208;6.418;2023-06-22T02:25:42;23.40;87.30
36292;DHT22;22327;51.208;6.418;2023-06-22T02:28:44;23.40;88.40
36292;DHT22;22327;51.208;6.418;2023-06-22T02:31:46;23.40;87.70
36292;DHT22;22327;51.208;6.418;2023-06-22T02:34:46;23.40;88.10
36292;DHT22;22327;51.208;6.418;2023-06-22T02:37:47;23.20;88.60
36292;DHT22;22327;51.208;6.418;2023-06-22T02:40:52;23.20;89.10
36292;DHT22;22327;51.208;6.418;2023-06-22T02:43:52;23.20;89.40
36292;DHT22;22327;51.208;6.418;2023-06-22T02:46:53;23.20;89.50
36292;DHT22;22327;51.208;6.418;2023-06-22T02:49:54;23.10;89.70
36292;DHT22;22327;51.208;6.418;2023-06-22T02:52:55;23.10;89.90
36292;DHT22;22327;51.208;6.418;2023-06-22T02:55:55;23.10;90.00
36292;DHT22;22327;51.208;6.418;2023-06-22T02:58:56;23.10;90.10
36292;DHT22;22327;51.208;6.418;2023-06-22T03:02:00;23.10;90.10
36292;DHT22;22327;51.208;6.418;2023-06-22T03:05:03;23.10;90.10
36292;DHT22;22327;51.208;6.418;2023-06-22T03:08:04;23.20;90.10
36292;DHT22;22327;51.208;6.418;2023-06-22T03:11:04;23.20;90.00
36292;DHT22;22327;51.208;6.418;2023-06-22T03:14:05;23.20;90.10
36292;DHT22;22327;51.208;6.418;2023-06-22T03:17:05;23.20;90.20
36292;DHT22;22327;51.208;6.418;2023-06-22T03:20:07;23.10;90.40
36292;DHT22;22327;51.208;6.418;2023-06-22T03:23:14;23.10;90.50
36292;DHT22;22327;51.208;6.418;2023-06-22T03:26:18;23.20;90.50
36292;DHT22;22327;51.208;6.418;2023-06-22T03:29:19;23.20;90.60
36292;DHT22;22327;51.208;6.418;2023-06-22T03:32:19;23.10;90.60
36292;DHT22;22327;51.208;6.418;2023-06-22T03:35:20;23.10;90.70
36292;DHT22;22327;51.208;6.418;2023-06-22T03:38:20;23.10;90.80
36292;DHT22;22327;51.208;6.418;2023-06-22T03:41:21;23.10;90.90
36292;DHT22;22327;51.208;6.418;2023-06-22T03:44:21;23.00;91.10
36292;DHT22;22327;51.208;6.418;2023-06-22T03:47:22;23.00;91.10
36292;DHT22;22327;51.208;6.418;2023-06-22T03:50:23;23.00;91.30
36292;DHT22;22327;51.208;6.418;2023-06-22T03:53:24;23.00;91.40
36292;DHT22;22327;51.208;6.418;2023-06-22T03:56:24;23.00;91.40
36292;DHT22;22327;51.208;6.418;2023-06-22T03:59:25;23.10;91.40
36292;DHT22;22327;51.208;6.418;2023-06-22T04:02:26;23.20;91.30
36292;DHT22;22327;51.208;6.418;2023-06-22T04:05:26;23.20;91.20
36292;DHT22;22327;51.208;6.418;2023-06-22T04:08:27;23.20;91.10
36292;DHT22;22327;51.208;6.418;2023-06-22T04:11:27;23.20;91.20
36292;DHT22;22327;51.208;6.418;2023-06-22T04:14:28;23.20;91.20
36292;DHT22;22327;51.208;6.418;2023-06-22T04:17:28;23.20;91.30
36292;DHT22;22327;51.208;6.418;2023-06-22T04:20:31;23.20;91.30
36292;DHT22;22327;51.208;6.418;2023-06-22T04:23:31;23.20;91.40
36292;DHT22;22327;51.208;6.418;2023-06-22T04:26:32;23.30;91.40
36292;DHT22;22327;51.208;6.418;2023-06-22T04:29:37;23.30;91.40
36292;DHT22;22327;51.208;6.418;2023-06-22T04:32:38;23.20;91.50
36292;DHT22;22327;51.208;6.418;2023-06-22T04:35:40;23.20;91.60
36292;DHT22;22327;51.208;6.418;2023-06-22T04:38:43;23.20;91.60
36292;DHT22;22327;51.208;6.418;2023-06-22T04:41:44;23.20;91.60
36292;DHT22;22327;51.208;6.418;2023-06-22T04:44:45;23.20;91.70
36292;DHT22;22327;51.208;6.418;2023-06-22T04:47:46;23.20;91.90
36292;DHT22;22327;51.208;6.418;2023-06-22T04:50:46;23.10;91.90
36292;DHT22;22327;51.208;6.418;2023-06-22T04:53:47;23.20;92.00
36292;DHT22;22327;51.208;6.418;2023-06-22T04:56:47;23.10;92.10
36292;DHT22;22327;51.208;6.418;2023-06-22T04:59:48;23.20;92.00
36292;DHT22;22327;51.208;6.418;2023-06-22T05:02:49;23.20;92.30
36292;DHT22;22327;51.208;6.418;2023-06-22T05:05:52;23.20;92.50
36292;DHT22;22327;51.208;6.418;2023-06-22T05:08:55;23.10;92.60
36292;DHT22;22327;51.208;6.418;2023-06-22T05:11:58;23.10;93.00
36292;DHT22;22327;51.208;6.418;2023-06-22T05:15:02;23.20;93.00
36292;DHT22;22327;51.208;6.418;2023-06-22T05:18:03;23.20;93.10
36292;DHT22;22327;51.208;6.418;2023-06-22T05:21:05;23.20;93.00
36292;DHT22;22327;51.208;6.418;2023-06-22T05:24:06;23.20;93.00
36292;DHT22;22327;51.208;6.418;2023-06-22T05:27:06;23.20;93.20
36292;DHT22;22327;51.208;6.418;2023-06-22T05:30:10;23.30;93.20
36292;DHT22;22327;51.208;6.418;2023-06-22T05:33:11;23.40;93.20
36292;DHT22;22327;51.208;6.418;2023-06-22T05:36:12;23.50;93.10
36292;DHT22;22327;51.208;6.418;2023-06-22T05:39:14;23.60;92.90
36292;DHT22;22327;51.208;6.418;2023-06-22T05:42:14;23.60;92.70
36292;DHT22;22327;51.208;6.418;2023-06-22T05:45:15;23.70;92.50
36292;DHT22;22327;51.208;6.418;2023-06-22T05:48:16;23.70;92.30
36292;DHT22;22327;51.208;6.418;2023-06-22T05:51:16;23.70;92.50
36292;DHT22;22327;51.208;6.418;2023-06-22T05:54:17;23.80;92.40
36292;DHT22;22327;51.208;6.418;2023-06-22T05:57:18;23.80;92.30
36292;DHT22;22327;51.208;6.418;2023-06-22T06:00:19;23.80;92.10
36292;DHT22;22327;51.208;6.418;2023-06-22T06:03:19;23.80;92.20
36292;DHT22;22327;51.208;6.418;2023-06-22T06:06:20;23.90;92.10
36292;DHT22;22327;51.208;6.418;2023-06-22T06:09:21;23.90;92.10
36292;DHT22;22327;51.208;6.418;2023-06-22T06:12:22;24.00;92.00
36292;DHT22;22327;51.208;6.418;2023-06-22T06:15:22;24.00;92.00
36292;DHT22;22327;51.208;6.418;2023-06-22T06:18:23;24.10;91.90
36292;DHT22;22327;51.208;6.418;2023-06-22T06:21:24;24.20;91.70
36292;DHT22;22327;51.208;6.418;2023-06-22T06:24:24;24.30;91.70
36292;DHT22;22327;51.208;6.418;2023-06-22T06:27:25;24.30;91.20
36292;DHT22;22327;51.208;6.418;2023-06-22T06:30:29;24.30;91.40
36292;DHT22;22327;51.208;6.418;2023-06-22T06:33:29;24.30;91.70
36292;DHT22;22327;51.208;6.418;2023-06-22T06:36:31;24.30;91.50
36292;DHT22;22327;51.208;6.418;2023-06-22T06:39:32;24.30;91.40
36292;DHT22;22327;51.208;6.418;2023-06-22T06:42:32;24.30;91.40
36292;DHT22;22327;51.208;6.418;2023-06-22T06:45:33;24.30;91.40
36292;DHT22;22327;51.208;6.418;2023-06-22T06:48:35;24.30;91.40
36292;DHT22;22327;51.208;6.418;2023-06-22T06:51:38;24.20;91.60
36292;DHT22;22327;51.208;6.418;2023-06-22T06:54:40;24.20;91.80
36292;DHT22;22327;51.208;6.418;2023-06-22T06:57:42;24.30;91.80
36292;DHT22;22327;51.208;6.418;2023-06-22T07:00:43;24.30;91.60
36292;DHT22;22327;51.208;6.418;2023-06-22T07:03:44;24.30;91.50
36292;DHT22;22327;51.208;6.418;2023-06-22T07:06:44;24.20;91.60
36292;DHT22;22327;51.208;6.418;2023-06-22T07:09:45;24.20;91.90
36292;DHT22;22327;51.208;6.418;2023-06-22T07:12:45;24.10;92.20
36292;DHT22;22327;51.208;6.418;2023-06-22T07:15:46;24.00;92.90
36292;DHT22;22327;51.208;6.418;2023-06-22T07:18:46;23.70;93.70
36292;DHT22;22327;51.208;6.418;2023-06-22T07:21:47;23.50;94.70
36292;DHT22;22327;51.208;6.418;2023-06-22T07:24:48;23.30;95.20
36292;DHT22;22327;51.208;6.418;2023-06-22T07:28:03;23.20;95.70
36292;DHT22;22327;51.208;6.418;2023-06-22T07:31:04;23.00;96.10
36292;DHT22;22327;51.208;6.418;2023-06-22T07:34:04;22.90;96.90
36292;DHT22;22327;51.208;6.418;2023-06-22T07:37:05;22.80;97.70
36292;DHT22;22327;51.208;6.418;2023-06-22T07:40:06;22.70;98.20
36292;DHT22;22327;51.208;6.418;2023-06-22T07:43:07;22.80;98.50
36292;DHT22;22327;51.208;6.418;2023-06-22T07:46:07;22.80;98.90
36292;DHT22;22327;51.208;6.418;2023-06-22T07:49:08;22.90;99.20
36292;DHT22;22327;51.208;6.418;2023-06-22T07:52:09;23.20;99.90
36292;DHT22;22327;51.208;6.418;2023-06-22T07:55:09;23.80;99.90
36292;DHT22;22327;51.208;6.418;2023-06-22T07:58:10;24.60;98.30
36292;DHT22;22327;51.208;6.418;2023-06-22T08:01:10;25.60;96.60
36292;DHT22;22327;51.208;6.418;2023-06-22T08:04:11;26.20;94.00
36292;DHT22;22327;51.208;6.418;2023-06-22T08:07:12;26.30;93.30
36292;DHT22;22327;51.208;6.418;2023-06-22T08:10:13;26.40;92.00
36292;DHT22;22327;51.208;6.418;2023-06-22T08:13:13;26.50;91.90
36292;DHT22;22327;51.208;6.418;2023-06-22T08:16:14;26.90;91.80
36292;DHT22;22327;51.208;6.418;2023-06-22T08:19:15;27.10;90.70
36292;DHT22;22327;51.208;6.418;2023-06-22T08:22:16;26.80;90.60
36292;DHT22;22327;51.208;6.418;2023-06-22T08:25:17;26.70;91.60
36292;DHT22;22327;51.208;6.418;2023-06-22T08:28:17;26.60;90.70
36292;DHT22;22327;51.208;6.418;2023-06-22T08:31:18;26.60;91.20
36292;DHT22;22327;51.208;6.418;2023-06-22T08:34:18;26.50;91.90
36292;DHT22;22327;51.208;6.418;2023-06-22T08:37:23;26.50;91.60
36292;DHT22;22327;51.208;6.418;2023-06-22T08:40:30;26.50;91.60
36292;DHT22;22327;51.208;6.418;2023-06-22T08:43:31;26.70;92.30
36292;DHT22;22327;51.208;6.418;2023-06-22T08:46:31;26.80;90.60
36292;DHT22;22327;51.208;6.418;2023-06-22T08:49:33;26.80;91.00
36292;DHT22;22327;51.208;6.418;2023-06-22T08:52:34;26.60;91.10
36292;DHT22;22327;51.208;6.418;2023-06-22T08:55:35;26.70;91.30
36292;DHT22;22327;51.208;6.418;2023-06-22T08:58:35;26.80;91.80
36292;DHT22;22327;51.208;6.418;2023-06-22T09:01:36;27.80;91.70
36292;DHT22;22327;51.208;6.418;2023-06-22T09:04:36;29.30;91.90
36292;DHT22;22327;51.208;6.418;2023-06-22T09:07:37;30.90;84.10
36292;DHT22;22327;51.208;6.418;2023-06-22T09:10:37;31.80;81.70
36292;DHT22;22327;51.208;6.418;2023-06-22T09:13:38;32.40;76.80
36292;DHT22;22327;51.208;6.418;2023-06-22T09:16:39;32.30;72.40
36292;DHT22;22327;51.208;6.418;2023-06-22T09:19:39;31.90;74.00
36292;DHT22;22327;51.208;6.418;2023-06-22T09:22:40;31.50;75.50
36292;DHT22;22327;51.208;6.418;2023-06-22T09:25:41;31.40;75.30
36292;DHT22;22327;51.208;6.418;2023-06-22T09:28:41;31.30;76.10
36292;DHT22;22327;51.208;6.418;2023-06-22T09:31:42;31.30;73.90
36292;DHT22;22327;51.208;6.418;2023-06-22T09:34:42;31.40;76.10
36292;DHT22;22327;51.208;6.418;2023-06-22T09:37:43;31.60;75.10
36292;DHT22;22327;51.208;6.418;2023-06-22T09:40:44;31.80;75.90
36292;DHT22;22327;51.208;6.418;2023-06-22T09:43:44;32.30;78.30
36292;DHT22;22327;51.208;6.418;2023-06-22T09:46:45;33.00;70.30
36292;DHT22;22327;51.208;6.418;2023-06-22T09:49:45;33.30;66.90
36292;DHT22;22327;51.208;6.418;2023-06-22T09:52:46;33.00;67.60
36292;DHT22;22327;51.208;6.418;2023-06-22T09:55:50;32.60;65.70
36292;DHT22;22327;51.208;6.418;2023-06-22T09:58:51;32.10;69.60
36292;DHT22;22327;51.208;6.418;2023-06-22T10:01:53;32.10;68.60
36292;DHT22;22327;51.208;6.418;2023-06-22T10:04:53;31.70;69.50
36292;DHT22;22327;51.208;6.418;2023-06-22T10:07:54;31.50;68.40
36292;DHT22;22327;51.208;6.418;2023-06-22T10:10:54;31.10;71.40
36292;DHT22;22327;51.208;6.418;2023-06-22T10:13:55;30.80;71.30
36292;DHT22;22327;51.208;6.418;2023-06-22T10:16:55;30.40;72.20
36292;DHT22;22327;51.208;6.418;2023-06-22T10:19:56;30.00;72.40
36292;DHT22;22327;51.208;6.418;2023-06-22T10:22:57;29.60;73.50
36292;DHT22;22327;51.208;6.418;2023-06-22T10:25:57;29.20;75.20
36292;DHT22;22327;51.208;6.418;2023-06-22T10:28:59;29.00;76.10
36292;DHT22;22327;51.208;6.418;2023-06-22T10:32:00;28.90;77.70
36292;DHT22;22327;51.208;6.418;2023-06-22T10:35:00;28.90;79.60
36292;DHT22;22327;51.208;6.418;2023-06-22T10:38:01;28.90;78.90
36292;DHT22;22327;51.208;6.418;2023-06-22T10:41:01;28.80;78.40
36292;DHT22;22327;51.208;6.418;2023-06-22T10:44:02;28.70;80.70
36292;DHT22;22327;51.208;6.418;2023-06-22T10:47:03;28.60;82.30
36292;DHT22;22327;51.208;6.418;2023-06-22T10:50:04;28.60;84.00
36292;DHT22;22327;51.208;6.418;2023-06-22T10:53:05;28.50;84.30
36292;DHT22;22327;51.208;6.418;2023-06-22T10:56:05;28.50;84.80
36292;DHT22;22327;51.208;6.418;2023-06-22T10:59:06;28.50;85.10
36292;DHT22;22327;51.208;6.418;2023-06-22T11:02:07;28.60;86.80
36292;DHT22;22327;51.208;6.418;2023-06-22T11:05:07;28.60;88.10
36292;DHT22;22327;51.208;6.418;2023-06-22T11:08:08;28.60;88.00
36292;DHT22;22327;51.208;6.418;2023-06-22T11:11:08;28.60;87.20
36292;DHT22;22327;51.208;6.418;2023-06-22T11:14:09;28.60;89.30
36292;DHT22;22327;51.208;6.418;2023-06-22T11:17:09;28.40;90.40
36292;DHT22;22327;51.208;6.418;2023-06-22T11:20:11;27.90;91.40
36292;DHT22;22327;51.208;6.418;2023-06-22T11:23:11;27.50;92.20
36292;DHT22;22327;51.208;6.418;2023-06-22T11:26:12;26.90;93.90
36292;DHT22;22327;51.208;6.418;2023-06-22T11:29:13;26.30;95.30
36292;DHT22;22327;51.208;6.418;2023-06-22T11:32:13;25.80;96.80
36292;DHT22;22327;51.208;6.418;2023-06-22T11:35:14;25.40;97.70
36292;DHT22;22327;51.208;6.418;2023-06-22T11:38:15;25.10;98.70
36292;DHT22;22327;51.208;6.418;2023-06-22T11:41:15;24.90;99.60
36292;DHT22;22327;51.208;6.418;2023-06-22T11:44:16;24.80;99.90
36292;DHT22;22327;51.208;6.418;2023-06-22T11:47:16;24.60;99.90
36292;DHT22;22327;51.208;6.418;2023-06-22T11:50:17;24.60;99.90
36292;DHT22;22327;51.208;6.418;2023-06-22T11:53:17;24.60;99.90
36292;DHT22;22327;51.208;6.418;2023-06-22T11:56:18;24.70;99.90
36292;DHT22;22327;51.208;6.418;2023-06-22T11:59:18;24.70;99.90
36292;DHT22;22327;51.208;6.418;2023-06-22T12:02:19;24.70;99.90
36292;DHT22;22327;51.208;6.418;2023-06-22T12:05:20;24.90;99.90
36292;DHT22;22327;51.208;6.418;2023-06-22T12:08:24;25.00;99.90
36292;DHT22;22327;51.208;6.418;2023-06-22T12:11:25;25.20;99.90
36292;DHT22;22327;51.208;6.418;2023-06-22T12:14:25;25.40;99.90
36292;DHT22;22327;51.208;6.418;2023-06-22T12:17:26;25.70;99.90
36292;DHT22;22327;51.208;6.418;2023-06-22T12:20:26;25.90;99.90
36292;DHT22;22327;51.208;6.418;2023-06-22T12:23:27;26.00;99.40
36292;DHT22;22327;51.208;6.418;2023-06-22T12:26:27;26.00;99.90
36292;DHT22;22327;51.208;6.418;2023-06-22T12:29:28;26.10;99.90
36292;DHT22;22327;51.208;6.418;2023-06-22T12:32:29;26.40;99.90
36292;DHT22;22327;51.208;6.418;2023-06-22T12:35:30;26.70;99.50
36292;DHT22;22327;51.208;6.418;2023-06-22T12:38:30;26.60;98.10
36292;DHT22;22327;51.208;6.418;2023-06-22T12:41:31;26.60;99.00
36292;DHT22;22327;51.208;6.418;2023-06-22T12:44:32;26.40;98.80
36292;DHT22;22327;51.208;6.418;2023-06-22T12:47:32;26.20;99.60
36292;DHT22;22327;51.208;6.418;2023-06-22T12:50:33;26.00;99.30
36292;DHT22;22327;51.208;6.418;2023-06-22T12:53:33;25.90;99.60
36292;DHT22;22327;51.208;6.418;2023-06-22T12:56:34;25.80;99.50
36292;DHT22;22327;51.208;6.418;2023-06-22T12:59:35;25.80;99.90
36292;DHT22;22327;51.208;6.418;2023-06-22T13:02:35;25.90;99.90
36292;DHT22;22327;51.208;6.418;2023-06-22T13:05:36;25.90;99.50
36292;DHT22;22327;51.208;6.418;2023-06-22T13:08:36;26.00;99.10
36292;DHT22;22327;51.208;6.418;2023-06-22T13:11:37;25.90;99.20
36292;DHT22;22327;51.208;6.418;2023-06-22T13:14:37;25.80;99.80
36292;DHT22;22327;51.208;6.418;2023-06-22T13:17:38;25.80;99.20
36292;DHT22;22327;51.208;6.418;2023-06-22T13:20:38;25.70;99.80
36292;DHT22;22327;51.208;6.418;2023-06-22T13:23:39;25.90;99.90
36292;DHT22;22327;51.208;6.418;2023-06-22T13:26:40;25.90;99.90
36292;DHT22;22327;51.208;6.418;2023-06-22T13:29:40;26.10;99.90
36292;DHT22;22327;51.208;6.418;2023-06-22T13:32:41;26.30;99.50
36292;DHT22;22327;51.208;6.418;2023-06-22T13:35:42;26.40;98.80
36292;DHT22;22327;51.208;6.418;2023-06-22T13:38:43;26.40;99.20
36292;DHT22;22327;51.208;6.418;2023-06-22T13:41:43;26.40;99.50
36292;DHT22;22327;51.208;6.418;2023-06-22T13:44:44;26.50;99.30
36292;DHT22;22327;51.208;6.418;2023-06-22T13:47:44;26.60;99.20
36292;DHT22;22327;51.208;6.418;2023-06-22T13:50:45;26.70;99.30
36292;DHT22;22327;51.208;6.418;2023-06-22T13:53:45;26.60;99.00
36292;DHT22;22327;51.208;6.418;2023-06-22T13:56:46;26.70;98.30
36292;DHT22;22327;51.208;6.418;2023-06-22T13:59:46;26.50;98.40
36292;DHT22;22327;51.208;6.418;2023-06-22T14:02:47;26.40;98.80
36292;DHT22;22327;51.208;6.418;2023-06-22T14:05:47;26.30;98.90
36292;DHT22;22327;51.208;6.418;2023-06-22T14:08:48;26.40;98.50
36292;DHT22;22327;51.208;6.418;2023-06-22T14:11:49;26.20;98.60
36292;DHT22;22327;51.208;6.418;2023-06-22T14:14:50;26.30;99.40
36292;DHT22;22327;51.208;6.418;2023-06-22T14:17:50;26.40;98.60
36292;DHT22;22327;51.208;6.418;2023-06-22T14:20:51;26.30;98.60
36292;DHT22;22327;51.208;6.418;2023-06-22T14:23:51;26.20;98.10
36292;DHT22;22327;51.208;6.418;2023-06-22T14:26:53;25.90;98.60
36292;DHT22;22327;51.208;6.418;2023-06-22T14:29:54;25.80;99.20
36292;DHT22;22327;51.208;6.418;2023-06-22T14:32:54;25.80;99.20
36292;DHT22;22327;51.208;6.418;2023-06-22T14:35:55;25.70;99.30
36292;DHT22;22327;51.208;6.418;2023-06-22T14:38:55;25.60;99.10
36292;DHT22;22327;51.208;6.418;2023-06-22T14:41:56;25.40;99.70
36292;DHT22;22327;51.208;6.418;2023-06-22T14:44:56;25.40;99.60
36292;DHT22;22327;51.208;6.418;2023-06-22T14:47:56;25.20;99.90
36292;DHT22;22327;51.208;6.418;2023-06-22T14:50:57;25.10;99.90
36292;DHT22;22327;51.208;6.418;2023-06-22T14:53:58;25.10;99.90
36292;DHT22;22327;51.208;6.418;2023-06-22T14:56:58;25.00;99.90
36292;DHT22;22327;51.208;6.418;2023-06-22T14:59:59;25.10;99.90
36292;DHT22;22327;51.208;6.418;2023-06-22T15:03:01;25.10;99.90
36292;DHT22;22327;51.208;6.418;2023-06-22T15:06:03;25.10;99.90
36292;DHT22;22327;51.208;6.418;2023-06-22T15:09:04;25.10;99.90
36292;DHT22;22327;51.208;6.418;2023-06-22T15:12:05;25.10;99.90
36292;DHT22;22327;51.208;6.418;2023-06-22T15:15:08;25.10;99.90
36292;DHT22;22327;51.208;6.418;2023-06-22T15:18:08;25.00;99.90
36292;DHT22;22327;51.208;6.418;2023-06-22T15:21:09;24.90;99.90
36292;DHT22;22327;51.208;6.418;2023-06-22T15:24:10;24.90;99.90
36292;DHT22;22327;51.208;6.418;2023-06-22T15:27:11;24.90;99.90
36292;DHT22;22327;51.208;6.418;2023-06-22T15:30:11;24.90;99.90
36292;DHT22;22327;51.208;6.418;2023-06-22T15:33:12;24.80;99.90
36292;DHT22;22327;51.208;6.418;2023-06-22T15:36:12;24.60;99.90
36292;DHT22;22327;51.208;6.418;2023-06-22T15:39:13;24.20;99.90
36292;DHT22;22327;51.208;6.418;2023-06-22T15:42:14;24.00;99.90
36292;DHT22;22327;51.208;6.418;2023-06-22T15:45:14;23.80;99.90
36292;DHT22;22327;51.208;6.418;2023-06-22T15:48:15;23.70;99.90
36292;DHT22;22327;51.208;6.418;2023-06-22T15:51:15;23.50;99.90
36292;DHT22;22327;51.208;6.418;2023-06-22T15:54:16;23.50;99.90
36292;DHT22;22327;51.208;6.418;2023-06-22T15:57:16;23.40;99.90
36292;DHT22;22327;51.208;6.418;2023-06-22T16:00:17;23.40;99.90
36292;DHT22;22327;51.208;6.418;2023-06-22T16:03:18;23.40;99.90
36292;DHT22;22327;51.208;6.418;2023-06-22T16:06:19;23.10;99.90
36292;DHT22;22327;51.208;6.418;2023-06-22T16:09:20;23.10;99.90
36292;DHT22;22327;51.208;6.418;2023-06-22T16:12:21;23.10;99.90
36292;DHT22;22327;51.208;6.418;2023-06-22T16:15:21;23.10;99.90
36292;DHT22;22327;51.208;6.418;2023-06-22T16:18:22;23.00;99.90
36292;DHT22;22327;51.208;6.418;2023-06-22T16:21:22;22.80;99.90
36292;DHT22;22327;51.208;6.418;2023-06-22T16:24:23;22.70;99.90
36292;DHT22;22327;51.208;6.418;2023-06-22T16:27:23;22.50;99.90
36292;DHT22;22327;51.208;6.418;2023-06-22T16:30:24;22.40;99.90
36292;DHT22;22327;51.208;6.418;2023-06-22T16:33:25;22.40;99.90
36292;DHT22;22327;51.208;6.418;2023-06-22T16:36:25;22.40;99.90
36292;DHT22;22327;51.208;6.418;2023-06-22T16:39:26;22.40;99.90
36292;DHT22;22327;51.208;6.418;2023-06-22T16:42:26;22.40;99.90
36292;DHT22;22327;51.208;6.418;2023-06-22T16:45:27;22.40;99.90
36292;DHT22;22327;51.208;6.418;2023-06-22T16:48:30;22.40;99.90
36292;DHT22;22327;51.208;6.418;2023-06-22T16:51:31;22.30;99.90
36292;DHT22;22327;51.208;6.418;2023-06-22T16:54:31;22.30;99.90
36292;DHT22;22327;51.208;6.418;2023-06-22T16:57:33;22.30;99.90
36292;DHT22;22327;51.208;6.418;2023-06-22T17:00:34;22.20;99.90
36292;DHT22;22327;51.208;6.418;2023-06-22T17:03:43;22.30;99.90
36292;DHT22;22327;51.208;6.418;2023-06-22T17:06:48;22.30;99.90
36292;DHT22;22327;51.208;6.418;2023-06-22T17:09:53;22.30;99.90
36292;DHT22;22327;51.208;6.418;2023-06-22T17:12:55;22.30;99.90
36292;DHT22;22327;51.208;6.418;2023-06-22T17:15:59;22.40;99.90
36292;DHT22;22327;51.208;6.418;2023-06-22T17:19:03;22.30;99.90
36292;DHT22;22327;51.208;6.418;2023-06-22T17:22:05;22.30;99.90
36292;DHT22;22327;51.208;6.418;2023-06-22T17:25:08;22.40;99.90
36292;DHT22;22327;51.208;6.418;2023-06-22T17:28:09;22.50;99.90
36292;DHT22;22327;51.208;6.418;2023-06-22T17:31:10;22.50;99.90
36292;DHT22;22327;51.208;6.418;2023-06-22T17:34:15;22.50;99.90
36292;DHT22;22327;51.208;6.418;2023-06-22T17:37:16;22.50;99.90
36292;DHT22;22327;51.208;6.418;2023-06-22T17:40:19;22.50;99.90
36292;DHT22;22327;51.208;6.418;2023-06-22T17:43:19;22.50;99.90
36292;DHT22;22327;51.208;6.418;2023-06-22T17:46:21;22.50;99.90
36292;DHT22;22327;51.208;6.418;2023-06-22T17:49:27;22.50;99.90
36292;DHT22;22327;51.208;6.418;2023-06-22T17:52:30;22.50;99.90
36292;DHT22;22327;51.208;6.418;2023-06-22T17:55:33;22.50;99.90
36292;DHT22;22327;51.208;6.418;2023-06-22T17:58:33;22.40;99.90
36292;DHT22;22327;51.208;6.418;2023-06-22T18:01:35;22.20;99.90
36292;DHT22;22327;51.208;6.418;2023-06-22T18:04:36;22.00;99.90
36292;DHT22;22327;51.208;6.418;2023-06-22T18:07:37;21.90;99.90
36292;DHT22;22327;51.208;6.418;2023-06-22T18:10:38;21.90;99.90
36292;DHT22;22327;51.208;6.418;2023-06-22T18:13:40;22.00;99.90
36292;DHT22;22327;51.208;6.418;2023-06-22T18:16:44;22.00;99.90
36292;DHT22;22327;51.208;6.418;2023-06-22T18:19:45;22.10;99.90
36292;DHT22;22327;51.208;6.418;2023-06-22T18:22:48;22.10;99.90
36292;DHT22;22327;51.208;6.418;2023-06-22T18:25:49;22.00;99.90
36292;DHT22;22327;51.208;6.418;2023-06-22T18:28:54;22.00;99.90
36292;DHT22;22327;51.208;6.418;2023-06-22T18:31:55;22.10;99.90
36292;DHT22;22327;51.208;6.418;2023-06-22T18:34:56;22.20;99.90
36292;DHT22;22327;51.208;6.418;2023-06-22T18:37:57;22.30;99.90
36292;DHT22;22327;51.208;6.418;2023-06-22T18:40:58;22.40;99.90
36292;DHT22;22327;51.208;6.418;2023-06-22T18:43:59;22.40;99.90
36292;DHT22;22327;51.208;6.418;2023-06-22T18:47:04;22.10;99.90
36292;DHT22;22327;51.208;6.418;2023-06-22T18:50:08;22.00;99.90
36292;DHT22;22327;51.208;6.418;2023-06-22T18:53:16;21.80;99.90
36292;DHT22;22327;51.208;6.418;2023-06-22T18:56:17;21.80;99.90
36292;DHT22;22327;51.208;6.418;2023-06-22T19:02:59;21.70;99.90
36292;DHT22;22327;51.208;6.418;2023-06-22T19:06:00;21.70;99.90
36292;DHT22;22327;51.208;6.418;2023-06-22T19:09:13;21.70;99.90
36292;DHT22;22327;51.208;6.418;2023-06-22T19:12:17;21.50;99.90
36292;DHT22;22327;51.208;6.418;2023-06-22T19:15:19;21.40;99.90